Time;durP1;ratioP1;P1;durP2;ratioP2;P2;SDS_P1;SDS_P2;PMS_P1;PMS_P2;Temp;Humidity;BMP_temperature;BMP_pressure;BME280_temperature;BME280_humidity;BME280_pressure;Samples;Min_cycle;Max_cycle;Signal;HPM_P1;HPM_P2
2024/01/09 00:00:14;;;;;;;13.33;7.67;;;;;;;;;;5048448;28;20582;-74
2024/01/09 00:02:39;;;;;;;14.37;8.03;;;;;;;;;;5052053;28;20229;-74
2024/01/09 00:05:04;;;;;;;14.40;8.20;;;;;;;;;;5049606;28;20298;-72
2024/01/09 00:07:30;;;;;;;13.00;7.63;;;;;;;;;;5050925;28;20229;-74
2024/01/09 00:09:55;;;;;;;13.30;7.90;;;;;;;;;;5050351;28;20251;-75
2024/01/09 00:12:20;;;;;;;13.77;8.30;;;;;;;;;;5051085;28;20255;-75
2024/01/09 00:14:46;;;;;;;13.77;8.07;;;;;;;;;;5051646;28;20216;-73
2024/01/09 00:17:11;;;;;;;13.03;7.80;;;;;;;;;;5050296;28;20237;-74
2024/01/09 00:19:36;;;;;;;15.47;7.73;;;;;;;;;;5047946;28;20219;-74
2024/01/09 00:22:02;;;;;;;14.30;7.93;;;;;;;;;;5050573;28;20236;-74
2024/01/09 00:24:28;;;;;;;12.43;7.50;;;;;;;;;;5050411;28;20225;-74
2024/01/09 00:26:53;;;;;;;13.07;7.87;;;;;;;;;;5036027;28;20667;-74
2024/01/09 00:29:18;;;;;;;13.77;7.70;;;;;;;;;;5059380;28;20228;-73
2024/01/09 00:31:44;;;;;;;13.33;7.50;;;;;;;;;;5053902;28;20225;-75
2024/01/09 00:34:09;;;;;;;13.73;7.73;;;;;;;;;;5042465;28;20702;-73
2024/01/09 00:36:40;;;;;;;12.87;7.60;;;;;;;;;;5035234;28;20233;-73
2024/01/09 00:39:06;;;;;;;14.70;7.77;;;;;;;;;;5051907;28;20367;-75
2024/01/09 00:41:31;;;;;;;13.27;7.97;;;;;;;;;;5055366;28;20295;-74
2024/01/09 00:43:57;;;;;;;15.13;7.90;;;;;;;;;;5053061;28;20220;-74
2024/01/09 00:46:25;;;;;;;13.43;7.60;;;;;;;;;;5042573;28;20243;-75
2024/01/09 00:48:50;;;;;;;15.60;8.30;;;;;;;;;;5044216;28;20228;-74
2024/01/09 00:51:16;;;;;;;14.53;7.80;;;;;;;;;;5049771;28;20216;-74
2024/01/09 00:53:41;;;;;;;14.90;8.27;;;;;;;;;;5033940;28;20240;-74
2024/01/09 00:56:07;;;;;;;13.70;7.77;;;;;;;;;;5051583;28;20888;-74
2024/01/09 00:58:32;;;;;;;12.97;7.77;;;;;;;;;;5051839;28;20225;-74
2024/01/09 01:00:57;;;;;;;13.47;7.60;;;;;;;;;;5053697;28;20717;-73
2024/01/09 01:03:23;;;;;;;13.43;7.67;;;;;;;;;;5052603;28;20728;-74
2024/01/09 01:05:48;;;;;;;12.17;7.50;;;;;;;;;;5045018;28;20706;-74
2024/01/09 01:08:13;;;;;;;11.67;7.27;;;;;;;;;;5052756;28;20590;-74
2024/01/09 01:10:39;;;;;;;12.73;7.30;;;;;;;;;;5052504;28;20303;-74
2024/01/09 01:13:04;;;;;;;13.87;7.00;;;;;;;;;;5050352;28;20222;-74
2024/01/09 01:15:30;;;;;;;13.23;7.73;;;;;;;;;;5050715;28;20220;-74
2024/01/09 01:17:55;;;;;;;13.50;7.37;;;;;;;;;;5042192;28;20233;-74
2024/01/09 01:20:20;;;;;;;12.57;7.10;;;;;;;;;;5051576;28;20252;-73
2024/01/09 01:22:46;;;;;;;11.83;7.10;;;;;;;;;;5035216;28;20237;-73
2024/01/09 01:25:11;;;;;;;14.07;7.60;;;;;;;;;;5048835;28;20229;-74
2024/01/09 01:27:36;;;;;;;13.73;7.47;;;;;;;;;;5050023;28;20233;-74
2024/01/09 01:30:02;;;;;;;13.17;7.53;;;;;;;;;;5048751;28;20237;-75
2024/01/09 01:32:27;;;;;;;12.67;7.23;;;;;;;;;;5046161;28;20278;-73
2024/01/09 01:34:52;;;;;;;12.43;7.30;;;;;;;;;;5050829;28;20224;-74
2024/01/09 01:37:18;;;;;;;12.93;7.10;;;;;;;;;;5054141;28;20237;-74
2024/01/09 01:39:43;;;;;;;12.77;7.30;;;;;;;;;;5052999;28;20221;-73
2024/01/09 01:42:08;;;;;;;12.57;7.53;;;;;;;;;;5035549;28;20260;-73
2024/01/09 01:44:33;;;;;;;13.63;7.40;;;;;;;;;;5051945;28;20224;-73
2024/01/09 01:46:59;;;;;;;11.20;6.57;;;;;;;;;;5049081;28;20324;-73
2024/01/09 01:49:24;;;;;;;12.10;7.17;;;;;;;;;;5049615;28;20328;-73
2024/01/09 01:51:50;;;;;;;13.00;7.20;;;;;;;;;;5051105;28;20230;-74
2024/01/09 01:54:15;;;;;;;11.47;6.90;;;;;;;;;;5049726;28;20221;-74
2024/01/09 01:56:41;;;;;;;12.43;7.37;;;;;;;;;;5043138;28;20221;-75
2024/01/09 01:59:06;;;;;;;13.20;7.30;;;;;;;;;;5054490;28;20271;-73
2024/01/09 02:01:31;;;;;;;12.27;7.13;;;;;;;;;;5056334;28;20248;-75
2024/01/09 02:03:57;;;;;;;13.23;7.33;;;;;;;;;;5056426;28;20217;-74
2024/01/09 02:06:22;;;;;;;12.40;7.43;;;;;;;;;;5039542;28;20236;-74
2024/01/09 02:08:47;;;;;;;12.43;6.93;;;;;;;;;;5046804;28;20235;-74
2024/01/09 02:11:13;;;;;;;13.37;7.33;;;;;;;;;;5054094;28;20774;-73
2024/01/09 02:13:38;;;;;;;12.23;6.80;;;;;;;;;;5052467;28;20901;-75
2024/01/09 02:16:03;;;;;;;11.90;6.50;;;;;;;;;;5055503;28;20225;-75
2024/01/09 02:18:29;;;;;;;9.47;5.37;;;;;;;;;;5049534;28;20289;-74
2024/01/09 02:20:54;;;;;;;9.80;5.50;;;;;;;;;;5053605;28;20213;-73
2024/01/09 02:23:19;;;;;;;9.83;5.87;;;;;;;;;;5043015;28;20706;-74
2024/01/09 02:25:45;;;;;;;9.17;5.80;;;;;;;;;;5053364;28;20222;-73
2024/01/09 02:28:18;;;;;;;10.27;5.90;;;;;;;;;;5046403;28;20337;-73
2024/01/09 02:30:44;;;;;;;10.53;5.70;;;;;;;;;;5051985;28;20255;-74
2024/01/09 02:33:09;;;;;;;9.63;5.37;;;;;;;;;;5056116;28;20231;-73
2024/01/09 02:35:34;;;;;;;7.17;4.53;;;;;;;;;;5054912;28;20720;-73
2024/01/09 02:38:00;;;;;;;7.70;4.60;;;;;;;;;;5052337;28;20233;-73
2024/01/09 02:40:26;;;;;;;7.53;4.40;;;;;;;;;;5053425;28;20245;-73
2024/01/09 02:42:51;;;;;;;8.30;4.33;;;;;;;;;;5051723;28;20225;-73
2024/01/09 02:45:17;;;;;;;6.50;4.13;;;;;;;;;;5050899;28;20223;-73
2024/01/09 02:47:42;;;;;;;6.90;4.10;;;;;;;;;;5052927;28;20232;-74
2024/01/09 02:50:07;;;;;;;5.97;3.70;;;;;;;;;;5052463;28;20260;-73
2024/01/09 02:52:33;;;;;;;6.17;3.70;;;;;;;;;;5054038;28;20221;-73
2024/01/09 02:54:58;;;;;;;6.03;3.43;;;;;;;;;;5053909;28;20325;-74
2024/01/09 02:57:23;;;;;;;6.33;3.60;;;;;;;;;;5052419;28;20287;-73
2024/01/09 02:59:49;;;;;;;6.13;3.77;;;;;;;;;;5045654;28;20279;-74
2024/01/09 03:02:14;;;;;;;6.80;4.07;;;;;;;;;;5052160;28;20308;-73
2024/01/09 03:04:39;;;;;;;8.17;4.10;;;;;;;;;;5060917;28;20599;-74
2024/01/09 03:07:05;;;;;;;6.73;4.13;;;;;;;;;;5050436;28;20371;-74
2024/01/09 03:09:31;;;;;;;8.57;5.13;;;;;;;;;;5052241;28;20691;-74
2024/01/09 03:11:56;;;;;;;8.93;4.60;;;;;;;;;;5062192;28;20724;-73
2024/01/09 03:14:25;;;;;;;8.80;4.73;;;;;;;;;;5054589;28;20225;-72
2024/01/09 03:16:50;;;;;;;8.50;5.23;;;;;;;;;;5049241;28;20230;-73
2024/01/09 03:19:15;;;;;;;8.40;5.27;;;;;;;;;;5040205;28;20279;-74
2024/01/09 03:21:41;;;;;;;10.20;5.37;;;;;;;;;;5054188;28;20224;-73
2024/01/09 03:24:06;;;;;;;10.17;5.70;;;;;;;;;;5042741;28;20214;-74
2024/01/09 03:26:31;;;;;;;11.63;5.53;;;;;;;;;;5047922;28;20633;-73
2024/01/09 03:28:58;;;;;;;10.77;5.33;;;;;;;;;;5060815;28;20225;-74
2024/01/09 03:31:23;;;;;;;10.10;5.67;;;;;;;;;;5054282;28;20225;-74
2024/01/09 03:33:48;;;;;;;10.43;6.03;;;;;;;;;;5038391;28;20230;-74
2024/01/09 03:36:14;;;;;;;10.73;5.80;;;;;;;;;;5038433;28;20225;-74
2024/01/09 03:38:42;;;;;;;9.67;5.40;;;;;;;;;;5036644;28;20658;-73
2024/01/09 03:41:08;;;;;;;9.43;5.57;;;;;;;;;;5050718;28;20221;-73
2024/01/09 03:43:33;;;;;;;12.73;6.03;;;;;;;;;;5052362;28;20214;-74
2024/01/09 03:45:58;;;;;;;11.37;5.70;;;;;;;;;;5050506;28;20220;-72
2024/01/09 03:48:24;;;;;;;12.27;6.27;;;;;;;;;;5037289;28;20906;-73
2024/01/09 03:50:49;;;;;;;9.37;5.50;;;;;;;;;;5061547;28;20221;-72
2024/01/09 03:53:14;;;;;;;9.53;5.43;;;;;;;;;;5047718;28;20233;-74
2024/01/09 03:55:40;;;;;;;9.87;5.60;;;;;;;;;;5049371;28;20222;-74
2024/01/09 03:58:05;;;;;;;10.17;5.53;;;;;;;;;;5031562;28;20236;-73
2024/01/09 04:00:30;;;;;;;10.03;5.10;;;;;;;;;;5059456;28;20217;-73
2024/01/09 04:02:56;;;;;;;9.53;5.50;;;;;;;;;;5043961;28;20217;-73
2024/01/09 04:05:21;;;;;;;9.83;4.97;;;;;;;;;;5052023;28;20212;-74
2024/01/09 04:07:46;;;;;;;10.77;5.30;;;;;;;;;;5052494;28;20236;-73
2024/01/09 04:10:12;;;;;;;8.53;5.07;;;;;;;;;;5036595;28;21096;-73
2024/01/09 04:12:37;;;;;;;9.70;5.00;;;;;;;;;;5052793;28;20212;-73
2024/01/09 04:15:03;;;;;;;9.43;5.20;;;;;;;;;;5050766;28;20221;-74
2024/01/09 04:17:28;;;;;;;8.93;5.30;;;;;;;;;;5050128;28;20226;-73
2024/01/09 04:19:54;;;;;;;11.33;5.67;;;;;;;;;;5029143;28;20229;-73
2024/01/09 04:22:19;;;;;;;9.07;5.47;;;;;;;;;;5036543;28;20225;-74
2024/01/09 04:24:44;;;;;;;9.33;5.10;;;;;;;;;;5042279;28;20231;-75
2024/01/09 04:27:10;;;;;;;9.43;5.13;;;;;;;;;;5050157;28;20225;-74
2024/01/09 04:29:35;;;;;;;8.07;4.60;;;;;;;;;;5036663;28;20644;-74
2024/01/09 04:32:00;;;;;;;8.60;4.90;;;;;;;;;;5051667;28;20225;-74
2024/01/09 04:34:26;;;;;;;8.27;4.87;;;;;;;;;;5051688;28;20216;-74
2024/01/09 04:36:51;;;;;;;10.17;4.60;;;;;;;;;;5048827;28;20435;-74
2024/01/09 04:39:16;;;;;;;6.90;4.17;;;;;;;;;;5050920;28;20227;-73
2024/01/09 04:41:42;;;;;;;7.27;4.20;;;;;;;;;;5038495;28;20228;-74
2024/01/09 04:44:07;;;;;;;9.33;4.10;;;;;;;;;;5050583;28;20236;-74
2024/01/09 04:46:32;;;;;;;6.37;3.40;;;;;;;;;;5048794;28;20245;-74
2024/01/09 04:48:58;;;;;;;4.53;2.73;;;;;;;;;;5051631;28;20961;-74
2024/01/09 04:51:23;;;;;;;6.53;3.57;;;;;;;;;;5042875;28;20602;-75
2024/01/09 04:53:48;;;;;;;4.53;2.70;;;;;;;;;;5052672;28;20313;-74
2024/01/09 04:56:14;;;;;;;4.83;2.40;;;;;;;;;;5047566;28;20315;-74
2024/01/09 04:58:39;;;;;;;2.90;2.20;;;;;;;;;;5050179;28;20224;-74
2024/01/09 05:01:05;;;;;;;3.60;2.40;;;;;;;;;;5048698;28;20614;-74
2024/01/09 05:03:30;;;;;;;2.83;2.27;;;;;;;;;;5036572;28;20718;-74
2024/01/09 05:05:56;;;;;;;3.47;2.40;;;;;;;;;;5034816;28;20240;-73
2024/01/09 05:08:21;;;;;;;4.83;2.27;;;;;;;;;;5037236;28;20776;-74
2024/01/09 05:10:47;;;;;;;3.73;2.20;;;;;;;;;;5058080;28;20247;-73
2024/01/09 05:13:12;;;;;;;4.87;2.57;;;;;;;;;;5059242;28;20221;-74
2024/01/09 05:15:37;;;;;;;4.73;2.20;;;;;;;;;;5045429;28;20279;-73
2024/01/09 05:18:03;;;;;;;5.17;2.20;;;;;;;;;;5040329;28;20221;-73
2024/01/09 05:20:28;;;;;;;4.97;2.50;;;;;;;;;;5040991;28;20221;-74
2024/01/09 05:22:54;;;;;;;3.50;2.40;;;;;;;;;;5033454;28;20322;-74
2024/01/09 05:25:19;;;;;;;6.60;3.10;;;;;;;;;;5050429;28;20799;-73
2024/01/09 05:27:45;;;;;;;5.17;2.77;;;;;;;;;;5046875;28;20956;-74
2024/01/09 05:30:10;;;;;;;3.60;2.43;;;;;;;;;;5053852;28;20230;-75
2024/01/09 05:32:35;;;;;;;8.03;3.10;;;;;;;;;;5053462;28;20273;-74
2024/01/09 05:35:02;;;;;;;7.20;3.13;;;;;;;;;;5058437;28;20630;-73
2024/01/09 05:37:27;;;;;;;9.60;3.93;;;;;;;;;;5042425;28;20799;-74
2024/01/09 05:39:52;;;;;;;4.17;2.73;;;;;;;;;;5056133;28;20225;-74
2024/01/09 05:42:18;;;;;;;6.23;3.20;;;;;;;;;;5063342;28;20728;-73
2024/01/09 05:44:43;;;;;;;6.17;2.50;;;;;;;;;;5053824;28;20305;-74
2024/01/09 05:47:09;;;;;;;4.30;2.43;;;;;;;;;;5053937;28;20834;-73
2024/01/09 05:49:34;;;;;;;6.00;2.80;;;;;;;;;;5044070;28;20664;-74
2024/01/09 05:51:59;;;;;;;7.17;4.30;;;;;;;;;;5046023;28;20596;-74
2024/01/09 05:54:27;;;;;;;5.07;2.67;;;;;;;;;;5056547;28;20658;-74
2024/01/09 05:56:53;;;;;;;4.33;2.73;;;;;;;;;;5050954;28;20257;-74
2024/01/09 05:59:18;;;;;;;3.90;2.80;;;;;;;;;;5053096;28;20255;-73
2024/01/09 06:01:44;;;;;;;5.83;3.00;;;;;;;;;;5058041;28;20225;-73
2024/01/09 06:04:10;;;;;;;3.63;2.40;;;;;;;;;;5055958;28;20225;-73
2024/01/09 06:06:35;;;;;;;4.03;2.70;;;;;;;;;;5055736;28;20244;-74
2024/01/09 06:09:00;;;;;;;5.17;2.70;;;;;;;;;;5063796;28;20225;-74
2024/01/09 06:11:26;;;;;;;5.00;2.90;;;;;;;;;;5053553;28;20598;-74
2024/01/09 06:13:53;;;;;;;5.43;2.90;;;;;;;;;;5053918;28;20217;-74
2024/01/09 06:16:19;;;;;;;7.67;3.07;;;;;;;;;;5050770;28;20313;-73
2024/01/09 06:18:44;;;;;;;5.73;3.20;;;;;;;;;;5042956;28;20719;-73
2024/01/09 06:21:09;;;;;;;5.33;3.33;;;;;;;;;;5052291;28;20289;-73
2024/01/09 06:23:35;;;;;;;5.93;3.60;;;;;;;;;;5049391;28;20330;-73
2024/01/09 06:26:00;;;;;;;6.70;3.70;;;;;;;;;;5057197;28;20221;-74
2024/01/09 06:28:25;;;;;;;6.07;3.50;;;;;;;;;;5042856;28;20282;-74
2024/01/09 06:30:51;;;;;;;5.17;3.23;;;;;;;;;;5033428;28;20228;-74
2024/01/09 06:33:16;;;;;;;7.03;3.87;;;;;;;;;;5049488;28;20788;-74
2024/01/09 06:35:42;;;;;;;7.17;3.63;;;;;;;;;;5049798;28;20221;-73
2024/01/09 06:38:07;;;;;;;6.27;3.70;;;;;;;;;;5037945;28;20685;-73
2024/01/09 06:40:33;;;;;;;6.43;3.90;;;;;;;;;;5062542;28;20220;-72
2024/01/09 06:42:58;;;;;;;7.33;4.33;;;;;;;;;;5050217;28;20382;-73
2024/01/09 06:45:23;;;;;;;6.87;3.90;;;;;;;;;;5046127;28;20767;-72
2024/01/09 06:47:49;;;;;;;9.13;5.30;;;;;;;;;;5051964;28;20418;-73
2024/01/09 06:50:14;;;;;;;6.43;4.17;;;;;;;;;;5050659;28;20241;-72
2024/01/09 06:52:39;;;;;;;5.83;3.40;;;;;;;;;;5060651;28;20308;-73
2024/01/09 06:55:05;;;;;;;6.33;3.27;;;;;;;;;;5052276;28;20290;-72
2024/01/09 06:57:30;;;;;;;5.57;3.60;;;;;;;;;;5053629;28;20221;-72
2024/01/09 06:59:55;;;;;;;6.20;3.90;;;;;;;;;;5051861;28;20229;-72
2024/01/09 07:02:21;;;;;;;5.60;3.70;;;;;;;;;;5049990;28;20315;-73
2024/01/09 07:04:46;;;;;;;6.83;4.20;;;;;;;;;;5055575;28;20320;-72
2024/01/09 07:07:14;;;;;;;6.37;3.93;;;;;;;;;;5042980;28;20233;-72
2024/01/09 07:09:40;;;;;;;7.43;4.40;;;;;;;;;;5037175;28;20311;-72
2024/01/09 07:12:07;;;;;;;6.83;4.17;;;;;;;;;;5061415;28;20860;-71
2024/01/09 07:14:32;;;;;;;10.23;4.67;;;;;;;;;;5052867;28;20220;-71
2024/01/09 07:17:00;;;;;;;7.70;4.67;;;;;;;;;;5055199;28;20710;-70
2024/01/09 07:19:26;;;;;;;6.97;4.50;;;;;;;;;;5049852;28;20241;-71
2024/01/09 07:21:51;;;;;;;7.17;4.20;;;;;;;;;;5053323;28;20268;-72
2024/01/09 07:24:16;;;;;;;6.27;4.03;;;;;;;;;;5044437;28;20683;-71
2024/01/09 07:26:42;;;;;;;6.93;4.20;;;;;;;;;;5054367;28;20290;-72
2024/01/09 07:29:08;;;;;;;6.70;4.30;;;;;;;;;;5039795;28;20217;-72
2024/01/09 07:31:33;;;;;;;7.87;4.87;;;;;;;;;;5060756;28;20225;-73
2024/01/09 07:33:58;;;;;;;5.67;3.80;;;;;;;;;;5047614;28;20226;-74
2024/01/09 07:36:24;;;;;;;8.00;4.37;;;;;;;;;;5053395;28;20233;-72
2024/01/09 07:38:49;;;;;;;7.57;4.77;;;;;;;;;;5051876;28;20231;-74
2024/01/09 07:41:17;;;;;;;7.13;4.60;;;;;;;;;;5050600;28;20277;-74
2024/01/09 07:43:42;;;;;;;8.27;4.70;;;;;;;;;;5035374;28;20221;-74
2024/01/09 07:46:08;;;;;;;8.97;4.80;;;;;;;;;;5053733;28;20227;-73
2024/01/09 07:48:33;;;;;;;8.63;4.63;;;;;;;;;;5034390;28;20225;-73
2024/01/09 07:51:01;;;;;;;8.73;5.20;;;;;;;;;;5047592;28;20293;-74
2024/01/09 07:53:26;;;;;;;9.87;5.23;;;;;;;;;;5049303;28;20766;-73
2024/01/09 07:55:52;;;;;;;8.87;4.83;;;;;;;;;;5054295;28;20230;-73
2024/01/09 07:58:17;;;;;;;10.87;5.33;;;;;;;;;;5049676;28;20220;-74
2024/01/09 08:00:43;;;;;;;7.80;4.70;;;;;;;;;;5053850;28;20223;-74
2024/01/09 08:03:08;;;;;;;8.13;5.10;;;;;;;;;;5050654;28;20248;-73
2024/01/09 08:05:33;;;;;;;10.03;4.87;;;;;;;;;;5051332;28;20274;-74
2024/01/09 08:07:59;;;;;;;8.53;4.40;;;;;;;;;;5052916;28;20247;-75
2024/01/09 08:10:24;;;;;;;12.90;6.37;;;;;;;;;;5035544;28;20241;-75
2024/01/09 08:12:49;;;;;;;10.00;5.40;;;;;;;;;;5050819;28;20358;-74
2024/01/09 08:15:15;;;;;;;9.63;4.47;;;;;;;;;;5039608;28;20234;-75
2024/01/09 08:17:40;;;;;;;6.73;4.30;;;;;;;;;;5052772;28;20229;-74
2024/01/09 08:20:06;;;;;;;10.47;4.43;;;;;;;;;;5051986;28;20654;-74
2024/01/09 08:22:31;;;;;;;7.33;3.73;;;;;;;;;;5057503;28;20725;-73
2024/01/09 08:24:56;;;;;;;6.60;3.90;;;;;;;;;;5037616;28;20234;-75
2024/01/09 08:27:22;;;;;;;5.90;3.63;;;;;;;;;;5051204;28;20245;-74
2024/01/09 08:29:47;;;;;;;7.00;3.83;;;;;;;;;;5035314;28;20307;-73
2024/01/09 08:32:15;;;;;;;6.20;3.70;;;;;;;;;;5040644;28;20224;-73
2024/01/09 08:34:40;;;;;;;7.13;3.93;;;;;;;;;;5038505;28;20217;-74
2024/01/09 08:37:06;;;;;;;6.73;3.73;;;;;;;;;;5047231;28;20235;-73
2024/01/09 08:39:31;;;;;;;7.07;4.17;;;;;;;;;;5053177;28;20217;-76
2024/01/09 08:41:56;;;;;;;7.20;4.00;;;;;;;;;;5048013;28;20996;-73
2024/01/09 08:44:22;;;;;;;6.47;3.93;;;;;;;;;;5049571;28;20282;-73
2024/01/09 08:46:48;;;;;;;10.30;4.60;;;;;;;;;;5050351;28;20241;-74
2024/01/09 08:49:13;;;;;;;6.07;3.90;;;;;;;;;;5047924;28;20224;-74
2024/01/09 08:51:38;;;;;;;6.50;4.00;;;;;;;;;;5053452;28;20224;-74
2024/01/09 08:54:04;;;;;;;6.67;3.70;;;;;;;;;;5050720;28;20313;-74
2024/01/09 08:56:29;;;;;;;6.23;3.57;;;;;;;;;;5050711;28;20665;-74
2024/01/09 08:58:54;;;;;;;9.27;5.10;;;;;;;;;;5051616;28;20303;-73
2024/01/09 09:01:20;;;;;;;6.97;4.10;;;;;;;;;;5036983;28;20302;-73
2024/01/09 09:03:46;;;;;;;8.27;4.00;;;;;;;;;;5051290;28;20233;-74
2024/01/09 09:06:11;;;;;;;5.77;3.60;;;;;;;;;;5048672;28;20538;-74
2024/01/09 09:08:39;;;;;;;7.27;4.00;;;;;;;;;;5048304;28;20866;-73
2024/01/09 09:11:04;;;;;;;7.20;3.93;;;;;;;;;;5051251;28;20699;-74
2024/01/09 09:13:30;;;;;;;7.63;4.13;;;;;;;;;;5055975;28;20213;-73
2024/01/09 09:15:55;;;;;;;6.40;4.30;;;;;;;;;;5053187;28;20233;-74
2024/01/09 09:18:20;;;;;;;6.27;3.80;;;;;;;;;;5051150;28;20221;-74
2024/01/09 09:20:46;;;;;;;7.50;4.10;;;;;;;;;;5041366;28;20320;-73
2024/01/09 09:23:11;;;;;;;10.73;4.77;;;;;;;;;;5058447;28;20224;-73
2024/01/09 09:25:36;;;;;;;6.63;3.60;;;;;;;;;;5049786;28;20220;-73
2024/01/09 09:28:02;;;;;;;5.90;3.70;;;;;;;;;;5057028;28;20310;-73
2024/01/09 09:30:28;;;;;;;5.10;3.27;;;;;;;;;;5038341;28;20223;-74
2024/01/09 09:32:56;;;;;;;6.70;3.40;;;;;;;;;;5050291;28;20311;-74
2024/01/09 09:35:21;;;;;;;4.90;2.90;;;;;;;;;;5054912;28;20286;-74
2024/01/09 09:37:46;;;;;;;5.60;3.40;;;;;;;;;;5038270;28;20228;-74
2024/01/09 09:40:12;;;;;;;5.13;3.27;;;;;;;;;;5056780;28;20245;-74
2024/01/09 09:42:37;;;;;;;7.10;3.50;;;;;;;;;;5037455;28;20230;-74
2024/01/09 09:45:02;;;;;;;6.30;3.27;;;;;;;;;;5034515;28;20228;-74
2024/01/09 09:47:29;;;;;;;6.97;3.87;;;;;;;;;;5035105;28;20225;-75
2024/01/09 09:49:54;;;;;;;5.30;3.40;;;;;;;;;;5052189;28;20915;-74
2024/01/09 09:52:20;;;;;;;7.07;3.80;;;;;;;;;;5047950;28;20291;-73
2024/01/09 09:54:45;;;;;;;6.07;3.70;;;;;;;;;;5049011;28;20229;-73
2024/01/09 09:57:10;;;;;;;5.77;3.70;;;;;;;;;;5055997;28;20216;-74
2024/01/09 09:59:36;;;;;;;7.13;3.20;;;;;;;;;;5036585;28;20225;-73
2024/01/09 10:02:03;;;;;;;7.47;3.90;;;;;;;;;;5049523;28;20714;-73
2024/01/09 10:04:31;;;;;;;6.43;3.47;;;;;;;;;;5059146;28;20220;-73
2024/01/09 10:06:57;;;;;;;6.20;3.80;;;;;;;;;;5037045;28;20661;-74
2024/01/09 10:09:23;;;;;;;7.57;4.10;;;;;;;;;;5043871;28;20223;-73
2024/01/09 10:11:49;;;;;;;7.47;4.23;;;;;;;;;;5042119;28;20230;-74
2024/01/09 10:14:14;;;;;;;7.57;3.90;;;;;;;;;;5035205;28;20226;-73
2024/01/09 10:16:49;;;;;;;11.97;4.30;;;;;;;;;;5052719;28;20912;-73
2024/01/09 10:19:15;;;;;;;9.77;4.50;;;;;;;;;;5037563;28;20224;-73
2024/01/09 10:21:40;;;;;;;9.37;4.83;;;;;;;;;;5046573;28;20629;-73
2024/01/09 10:24:06;;;;;;;9.43;4.70;;;;;;;;;;5052708;28;20252;-74
2024/01/09 10:26:31;;;;;;;9.07;4.97;;;;;;;;;;5061620;28;20248;-73
2024/01/09 10:28:58;;;;;;;10.60;5.57;;;;;;;;;;5056549;28;20751;-73
2024/01/09 10:31:23;;;;;;;12.73;6.00;;;;;;;;;;5036971;28;20228;-72
2024/01/09 10:33:49;;;;;;;13.83;6.30;;;;;;;;;;5056791;28;20225;-73
2024/01/09 10:36:14;;;;;;;12.77;5.60;;;;;;;;;;5052176;28;20656;-73
2024/01/09 10:38:39;;;;;;;13.93;6.90;;;;;;;;;;5055581;28;20244;-74
2024/01/09 10:41:14;;;;;;;11.07;5.63;;;;;;;;;;5054238;28;20316;-74
2024/01/09 10:43:40;;;;;;;11.87;5.90;;;;;;;;;;5052577;28;20931;-74
2024/01/09 10:46:05;;;;;;;11.10;5.63;;;;;;;;;;5043515;28;20229;-74
2024/01/09 10:48:31;;;;;;;11.67;5.87;;;;;;;;;;5037741;28;20742;-73
2024/01/09 10:50:56;;;;;;;11.23;5.50;;;;;;;;;;5045765;28;20232;-75
2024/01/09 10:53:24;;;;;;;12.03;6.10;;;;;;;;;;5053223;28;20212;-74
2024/01/09 10:55:50;;;;;;;12.47;6.17;;;;;;;;;;5038392;28;20382;-74
2024/01/09 10:58:15;;;;;;;13.60;6.10;;;;;;;;;;5055158;28;20746;-74
2024/01/09 11:00:40;;;;;;;10.40;5.63;;;;;;;;;;5055766;28;20712;-73
2024/01/09 11:03:06;;;;;;;12.30;5.73;;;;;;;;;;5034938;28;20239;-72
2024/01/09 11:05:31;;;;;;;13.33;6.20;;;;;;;;;;5051690;28;20224;-73
2024/01/09 11:07:56;;;;;;;11.83;6.07;;;;;;;;;;5054485;28;20240;-74
2024/01/09 11:10:22;;;;;;;25.23;9.90;;;;;;;;;;5037166;28;20311;-74
2024/01/09 11:12:48;;;;;;;16.53;7.17;;;;;;;;;;5043434;28;20229;-73
2024/01/09 11:15:15;;;;;;;9.47;4.93;;;;;;;;;;5061402;28;20228;-74
2024/01/09 11:17:40;;;;;;;11.30;5.87;;;;;;;;;;5053468;28;20849;-73
2024/01/09 11:20:06;;;;;;;11.20;5.90;;;;;;;;;;5052615;28;20304;-73
2024/01/09 11:22:36;;;;;;;12.57;5.87;;;;;;;;;;5036232;28;20759;-75
2024/01/09 11:25:02;;;;;;;11.60;6.33;;;;;;;;;;5041191;28;20224;-73
2024/01/09 11:27:33;;;;;;;11.27;5.33;;;;;;;;;;5048844;28;20299;-75
2024/01/09 11:29:59;;;;;;;8.73;4.17;;;;;;;;;;5039441;28;20221;-75
2024/01/09 11:32:25;;;;;;;9.97;5.03;;;;;;;;;;5049992;28;20225;-74
2024/01/09 11:35:10;;;;;;;9.20;4.37;;;;;;;;;;5036685;28;20222;-75
2024/01/09 11:37:41;;;;;;;8.20;4.60;;;;;;;;;;5052916;28;20251;-74
2024/01/09 11:40:10;;;;;;;12.57;5.27;;;;;;;;;;5050835;28;20246;-74
2024/01/09 11:42:38;;;;;;;12.33;5.27;;;;;;;;;;5051558;28;20225;-74
2024/01/09 11:45:05;;;;;;;9.37;5.00;;;;;;;;;;5051496;28;20275;-72
2024/01/09 11:47:31;;;;;;;10.53;5.63;;;;;;;;;;5037422;28;20725;-73
2024/01/09 11:49:58;;;;;;;11.00;5.17;;;;;;;;;;5039341;28;20248;-74
2024/01/09 11:52:24;;;;;;;13.20;5.23;;;;;;;;;;5069435;28;20614;-74
2024/01/09 11:54:50;;;;;;;10.37;5.23;;;;;;;;;;5039348;28;20932;-74
2024/01/09 11:57:15;;;;;;;11.07;4.83;;;;;;;;;;5049891;28;20224;-74
2024/01/09 11:59:40;;;;;;;11.60;4.87;;;;;;;;;;5042961;28;20217;-75
2024/01/09 12:02:06;;;;;;;10.70;5.57;;;;;;;;;;5051696;28;20253;-73
2024/01/09 12:04:31;;;;;;;12.10;5.70;;;;;;;;;;5051505;28;20217;-73
2024/01/09 12:06:56;;;;;;;10.53;5.27;;;;;;;;;;5052831;28;20232;-74
2024/01/09 12:09:22;;;;;;;12.37;5.53;;;;;;;;;;5037056;28;20221;-73
2024/01/09 12:11:47;;;;;;;11.87;5.50;;;;;;;;;;5049637;28;20229;-73
2024/01/09 12:14:12;;;;;;;11.20;5.43;;;;;;;;;;5056494;28;20249;-74
2024/01/09 12:16:38;;;;;;;9.87;4.77;;;;;;;;;;5051215;28;20225;-76
2024/01/09 12:19:03;;;;;;;12.87;5.33;;;;;;;;;;5059353;28;20221;-74
2024/01/09 12:21:32;;;;;;;10.07;4.87;;;;;;;;;;5051419;28;20606;-73
2024/01/09 12:23:59;;;;;;;10.67;4.60;;;;;;;;;;5048635;28;20723;-73
2024/01/09 12:26:24;;;;;;;7.80;4.27;;;;;;;;;;5046781;28;20279;-74
2024/01/09 12:28:50;;;;;;;10.20;4.13;;;;;;;;;;5044295;28;20216;-72
2024/01/09 12:31:16;;;;;;;9.27;4.50;;;;;;;;;;5052209;28;20222;-72
2024/01/09 12:33:42;;;;;;;8.40;4.20;;;;;;;;;;5061523;28;20228;-72
2024/01/09 12:36:07;;;;;;;7.97;3.83;;;;;;;;;;5037234;28;21425;-72
2024/01/09 12:38:33;;;;;;;10.23;4.07;;;;;;;;;;5049619;28;20226;-73
2024/01/09 12:41:02;;;;;;;7.23;3.73;;;;;;;;;;5035543;28;20225;-73
2024/01/09 12:43:27;;;;;;;10.23;4.30;;;;;;;;;;5037722;28;20209;-73
2024/01/09 12:45:53;;;;;;;7.40;3.77;;;;;;;;;;5058889;28;20227;-73
2024/01/09 12:48:19;;;;;;;10.03;4.30;;;;;;;;;;5048683;28;20229;-72
2024/01/09 12:50:56;;;;;;;8.73;4.13;;;;;;;;;;5050334;28;20217;-73
2024/01/09 12:53:21;;;;;;;6.43;3.40;;;;;;;;;;5050820;28;20227;-73
2024/01/09 12:55:47;;;;;;;8.03;3.60;;;;;;;;;;5057974;28;20229;-73
2024/01/09 12:58:12;;;;;;;13.77;6.00;;;;;;;;;;5037080;28;20315;-73
2024/01/09 13:00:37;;;;;;;7.67;3.50;;;;;;;;;;5049262;28;20252;-73
2024/01/09 13:03:03;;;;;;;7.77;3.60;;;;;;;;;;5051100;28;20332;-73
2024/01/09 13:05:28;;;;;;;9.23;3.60;;;;;;;;;;5049142;28;20315;-72
2024/01/09 13:07:53;;;;;;;8.17;3.73;;;;;;;;;;5048473;28;20323;-73
2024/01/09 13:10:19;;;;;;;5.70;3.40;;;;;;;;;;5050461;28;20228;-72
2024/01/09 13:12:46;;;;;;;7.37;3.20;;;;;;;;;;5044786;28;20601;-74
2024/01/09 13:15:11;;;;;;;6.83;3.40;;;;;;;;;;5050745;28;20260;-74
2024/01/09 13:17:36;;;;;;;6.63;3.00;;;;;;;;;;5050711;28;20306;-74
2024/01/09 13:20:06;;;;;;;7.77;3.13;;;;;;;;;;5049015;28;20668;-73
2024/01/09 13:22:32;;;;;;;7.13;3.40;;;;;;;;;;5036316;28;20227;-73
2024/01/09 13:24:57;;;;;;;5.37;2.70;;;;;;;;;;5048188;28;20221;-73
2024/01/09 13:27:22;;;;;;;5.17;2.93;;;;;;;;;;5036662;28;20264;-73
2024/01/09 13:29:48;;;;;;;5.50;2.80;;;;;;;;;;5049501;28;20946;-73
2024/01/09 13:32:13;;;;;;;5.90;2.97;;;;;;;;;;5054714;28;20229;-72
2024/01/09 13:34:39;;;;;;;12.33;5.47;;;;;;;;;;5053241;28;20522;-72
2024/01/09 13:37:04;;;;;;;5.90;2.90;;;;;;;;;;5049599;28;20229;-73
2024/01/09 13:39:30;;;;;;;5.87;2.80;;;;;;;;;;5037520;28;20227;-73
2024/01/09 13:41:55;;;;;;;6.27;3.30;;;;;;;;;;5051028;28;20240;-72
2024/01/09 13:44:20;;;;;;;5.90;3.00;;;;;;;;;;5051111;28;20800;-72
2024/01/09 13:46:47;;;;;;;8.37;2.90;;;;;;;;;;5049567;28;20707;-72
2024/01/09 13:49:12;;;;;;;5.20;2.80;;;;;;;;;;5051603;28;20233;-73
2024/01/09 13:51:38;;;;;;;6.40;2.90;;;;;;;;;;5055243;28;20305;-73
2024/01/09 13:54:03;;;;;;;6.33;2.90;;;;;;;;;;5053570;28;20629;-73
2024/01/09 13:56:30;;;;;;;4.87;2.70;;;;;;;;;;5051664;28;20225;-73
2024/01/09 13:58:55;;;;;;;4.97;2.67;;;;;;;;;;5058760;28;20749;-73
2024/01/09 14:01:20;;;;;;;5.70;3.00;;;;;;;;;;5064484;28;20227;-72
2024/01/09 14:03:46;;;;;;;7.60;4.13;;;;;;;;;;5056966;28;20849;-72
2024/01/09 14:06:11;;;;;;;8.03;3.40;;;;;;;;;;5055854;28;20833;-73
2024/01/09 14:08:37;;;;;;;11.17;3.00;;;;;;;;;;5054577;28;20220;-73
2024/01/09 14:11:03;;;;;;;5.20;2.57;;;;;;;;;;5040017;28;20227;-74
2024/01/09 14:13:28;;;;;;;5.47;3.00;;;;;;;;;;5056130;28;20223;-72
2024/01/09 14:15:56;;;;;;;7.13;3.73;;;;;;;;;;5055850;28;20238;-73
2024/01/09 14:18:21;;;;;;;5.43;3.00;;;;;;;;;;5054669;28;20216;-74
2024/01/09 14:20:46;;;;;;;5.13;2.67;;;;;;;;;;5040178;28;20217;-73
2024/01/09 14:23:12;;;;;;;6.80;2.70;;;;;;;;;;5046464;28;20217;-75
2024/01/09 14:25:37;;;;;;;3.47;2.00;;;;;;;;;;5041598;28;20236;-73
2024/01/09 14:28:03;;;;;;;3.37;2.07;;;;;;;;;;5044761;28;20681;-73